Flight Track Log - Related Links

Times and Time Zones

All times are in EDT time to prevent confusion due to time zone crossing. See the BER6706 flight status page for this flight to view local times or setup timezone preferences in your user account.

Time Position Orientation Groundspeed Altitude Reporting Facility
EDT Latitude Longitude Course Direction KTS MPH feet Rate Location/Type
Wed 12:57:00 AM 51.8790 10.4749 351° North  Level Estimated
Wed 12:58:00 AM 51.9824 10.4473 351° North  Level Estimated
Wed 12:59:00 AM 52.0858 10.4195 351° North  Level Estimated
Wed 01:00:00 AM 52.1893 10.3916 351° North  Level Estimated
Wed 01:01:00 AM 52.2926 10.3635 351° North  Level Estimated
Wed 01:02:00 AM 52.3960 10.3353 351° North  Level Estimated
Wed 01:03:00 AM 52.4994 10.3070 351° North  Level Estimated
Wed 01:04:00 AM 52.6028 10.2786 351° North  Level Estimated
Wed 01:05:00 AM 52.7062 10.2500 350° North  Level Estimated
Wed 01:06:00 AM 52.8096 10.2213 350° North  Level Estimated
Wed 01:07:00 AM 52.9129 10.1924 350° North  Level Estimated
Wed 01:08:00 AM 53.0163 10.1634 350° North  Level Estimated
Wed 01:09:00 AM 53.1196 10.1343 350° North  Level Estimated
Wed 01:10:00 AM 53.2229 10.1050 350° North  Level Estimated
Wed 01:11:00 AM 53.3263 10.0756 350° North  Level Estimated
Wed 01:12:00 AM 53.4296 10.0461 350° North  Level Estimated
Wed 01:13:00 AM 53.5329 10.0164 350° North  Level Estimated
Wed 01:14:00 AM 53.6304 9.9882 350° North  Level Estimated
Wed 01:15:00 AM 53.6304 9.9882 230° Southwest  Level Estimated
Wed 01:16:00 AM 53.6304 9.9882 230° Southwest  Level Estimated
Wed 01:17:00 AM 53.6304 9.9882 230° Southwest  Level Estimated
Wed 01:18:00 AM 53.6304 9.9882 230° Southwest  Level Estimated
Wed 01:19:00 AM 53.6304 9.9882 230° Southwest  Level Estimated
Wed 01:20:00 AM 53.6304 9.9882 230° Southwest  Level Estimated
Wed 01:21:00 AM 53.6304 9.9882 230° Southwest  Level Estimated
Wed 01:22:00 AM 53.6304 9.9882 230° Southwest  Level Estimated
Wed 01:23:00 AM 53.6304 9.9882 230° Southwest  Level Estimated
Wed 01:24:00 AM 53.6304 9.9882 230° Southwest  Level Estimated
Wed 01:25:00 AM 53.6304 9.9882 230° Southwest  Level Estimated
Wed 01:26:00 AM 53.6304 9.9882 230° Southwest  Level Estimated
Wed 01:27:00 AM 53.6304 9.9882 230° Southwest  Level Estimated
Wed 01:28:00 AM 53.6304 9.9882 230° Southwest  Level Estimated
Wed 01:29:00 AM 53.6304 9.9882 230° Southwest  Level Estimated
Wed 01:30:00 AM 53.6304 9.9882 230° Southwest  Level Estimated

Login

Don't have an account? Register now (free) for customized features, flight alerts, and more!